Time;durP1;ratioP1;P1;durP2;ratioP2;P2;SDS_P1;SDS_P2;PMS_P1;PMS_P2;Temp;Humidity;BMP_temperature;BMP_pressure;BME280_temperature;BME280_humidity;BME280_pressure;Samples;Min_cycle;Max_cycle;Signal;HPM_P1;HPM_P2
2022/11/01 00:09:35;;;;;;;18.77;14.07;;;14.00;99.90;;;;;;20919070;28;20242;-68
2022/11/01 00:19:37;;;;;;;18.60;13.83;;;13.90;99.90;;;;;;20918064;28;20216;-74
2022/11/01 00:29:39;;;;;;;18.00;13.97;;;13.90;99.90;;;;;;20917336;28;20227;-74
2022/11/01 00:39:40;;;;;;;18.57;14.70;;;13.80;99.90;;;;;;20916416;28;20211;-71
2022/11/01 00:49:42;;;;;;;14.90;12.83;;;13.80;99.90;;;;;;20915681;28;20209;-69
2022/11/01 00:59:44;;;;;;;14.07;11.60;;;13.80;99.90;;;;;;20915213;28;20209;-73
2022/11/01 01:09:45;;;;;;;15.17;12.70;;;13.80;99.90;;;;;;20914082;28;20238;-68
2022/11/01 01:19:47;;;;;;;13.57;11.57;;;13.70;99.90;;;;;;20913728;28;20207;-68
2022/11/01 01:29:50;;;;;;;15.47;11.00;;;13.70;99.90;;;;;;20913353;28;20208;-68
2022/11/01 01:39:52;;;;;;;11.20;9.93;;;13.60;99.90;;;;;;20912601;28;20616;-67
2022/11/01 01:50:22;;;;;;;13.03;10.60;;;13.50;99.90;;;;;;20912153;28;20227;-68
2022/11/01 02:00:25;;;;;;;13.20;9.60;;;13.50;99.90;;;;;;20912315;28;20207;-69
2022/11/01 02:10:28;;;;;;;10.53;9.43;;;13.50;99.90;;;;;;20920510;28;20659;-73
2022/11/01 02:20:42;;;;;;;11.53;9.53;;;13.50;99.90;;;;;;20927486;28;20223;-70
2022/11/01 02:31:07;;;;;;;11.47;9.40;;;13.40;99.90;;;;;;20926936;28;20242;-70
2022/11/01 02:41:47;;;;;;;11.63;9.30;;;13.40;99.90;;;;;;20925850;28;20203;-68
2022/11/01 02:51:50;;;;;;;12.70;9.30;;;13.30;99.90;;;;;;20923775;28;20235;-67
2022/11/01 03:02:07;;;;;;;10.00;8.77;;;13.30;99.90;;;;;;20924358;28;20241;-68
2022/11/01 03:12:24;;;;;;;11.60;9.00;;;13.30;99.90;;;;;;20923505;28;20245;-70
2022/11/01 03:22:43;;;;;;;11.03;9.70;;;13.30;99.90;;;;;;20921331;28;20205;-71
2022/11/01 03:32:48;;;;;;;11.37;9.13;;;13.30;99.90;;;;;;20922276;28;20236;-69
2022/11/01 03:42:53;;;;;;;11.03;9.40;;;13.30;99.90;;;;;;20921107;28;20229;-69
2022/11/01 03:52:54;;;;;;;10.10;8.87;;;13.30;99.90;;;;;;20920274;28;20239;-69
2022/11/01 04:02:57;;;;;;;10.70;9.27;;;13.30;99.90;;;;;;20919165;28;20235;-69
2022/11/01 04:12:59;;;;;;;9.70;7.80;;;13.40;99.90;;;;;;20918719;28;20331;-73
2022/11/01 04:23:04;;;;;;;9.73;8.70;;;13.30;99.90;;;;;;20917968;28;20236;-73
2022/11/01 04:33:06;;;;;;;13.73;8.60;;;13.30;99.90;;;;;;20916960;28;20717;-69
2022/11/01 04:43:09;;;;;;;19.97;14.57;;;13.30;99.90;;;;;;20916354;28;20203;-70
2022/11/01 04:53:11;;;;;;;17.03;13.63;;;13.20;99.90;;;;;;20915500;28;20627;-68
2022/11/01 05:03:13;;;;;;;11.03;9.33;;;13.20;99.90;;;;;;20914979;28;20236;-68
2022/11/01 05:13:15;;;;;;;11.37;8.50;;;13.30;99.90;;;;;;20914201;28;20239;-68
2022/11/01 05:23:16;;;;;;;12.67;10.20;;;13.30;99.90;;;;;;20913457;28;20689;-69
2022/11/01 05:33:19;;;;;;;13.70;9.47;;;13.40;99.90;;;;;;20912913;28;20234;-68
2022/11/01 05:43:21;;;;;;;14.03;9.30;;;13.40;99.90;;;;;;20911970;28;20208;-69
2022/11/01 05:53:22;;;;;;;10.60;8.57;;;13.40;99.90;;;;;;20912013;28;20643;-71
2022/11/01 06:03:24;;;;;;;11.27;8.57;;;13.40;99.90;;;;;;20911178;28;20237;-70
2022/11/01 06:13:26;;;;;;;13.27;8.93;;;13.40;99.90;;;;;;20911527;28;20239;-70
2022/11/01 06:23:28;;;;;;;12.33;9.10;;;13.40;99.90;;;;;;20910909;28;20599;-70
2022/11/01 06:33:30;;;;;;;13.57;8.67;;;13.50;99.90;;;;;;20914149;28;20688;-71
2022/11/01 06:43:32;;;;;;;12.27;9.37;;;13.50;99.90;;;;;;20928299;28;20200;-71
2022/11/01 06:53:34;;;;;;;12.63;9.97;;;13.50;99.90;;;;;;20911622;28;20300;-71
2022/11/01 07:03:35;;;;;;;16.63;9.00;;;13.50;99.90;;;;;;20923360;28;20230;-71
2022/11/01 07:13:37;;;;;;;16.37;8.50;;;13.90;99.90;;;;;;20923226;28;20240;-69
2022/11/01 07:23:39;;;;;;;13.03;7.90;;;14.30;99.90;;;;;;20945341;28;20216;-70
2022/11/01 07:33:41;;;;;;;12.47;7.53;;;14.60;99.90;;;;;;20920141;28;20765;-70
2022/11/01 07:43:43;;;;;;;15.83;6.73;;;14.80;99.90;;;;;;20920211;28;20204;-75
2022/11/01 07:53:44;;;;;;;13.13;7.60;;;14.90;99.90;;;;;;20920061;28;20243;-71
2022/11/01 08:03:48;;;;;;;11.17;7.03;;;15.20;99.90;;;;;;20918315;28;20239;-71
2022/11/01 08:13:49;;;;;;;9.90;6.50;;;15.30;99.90;;;;;;20915044;28;20238;-70
2022/11/01 08:23:51;;;;;;;8.20;4.83;;;15.40;99.90;;;;;;20916827;28;20268;-68
2022/11/01 08:33:53;;;;;;;7.17;4.67;;;15.40;99.90;;;;;;20917695;28;20233;-73
2022/11/01 08:43:57;;;;;;;15.90;6.60;;;15.50;99.90;;;;;;20916672;28;20208;-74
2022/11/01 08:53:59;;;;;;;10.13;5.93;;;15.50;99.90;;;;;;20915452;28;20241;-69
2022/11/01 09:04:00;;;;;;;8.63;5.17;;;15.60;99.90;;;;;;20914475;28;20236;-71
2022/11/01 09:14:02;;;;;;;14.27;4.73;;;15.90;99.90;;;;;;20914333;28;20241;-76
2022/11/01 09:24:04;;;;;;;5.43;3.10;;;16.00;99.90;;;;;;20913471;28;20223;-70
2022/11/01 09:34:06;;;;;;;5.93;3.07;;;16.10;99.90;;;;;;20912792;28;20297;-70
2022/11/01 09:44:17;;;;;;;5.63;2.97;;;16.30;99.90;;;;;;20912568;28;20211;-71
2022/11/01 09:54:22;;;;;;;5.43;2.97;;;16.30;99.90;;;;;;20912181;28;20284;-70
2022/11/01 10:04:50;;;;;;;5.43;2.80;;;16.40;99.90;;;;;;20911638;28;20231;-74
2022/11/01 10:15:39;;;;;;;6.27;2.80;;;16.70;99.90;;;;;;20911691;28;20247;-76
2022/11/01 10:25:47;;;;;;;5.40;2.50;;;17.20;99.90;;;;;;20884269;28;20207;-74
2022/11/01 10:35:50;;;;;;;6.10;2.43;;;;;;;;;;20926323;28;20571;-72
2022/11/01 10:45:55;;;;;;;5.33;2.20;;;;;;;;;;20926130;28;20609;-75
2022/11/01 10:56:03;;;;;;;10.00;5.67;;;17.60;99.90;;;;;;20924713;28;20282;-75
2022/11/01 11:06:09;;;;;;;5.30;2.27;;;17.60;99.90;;;;;;20923984;28;20689;-76
2022/11/01 11:16:25;;;;;;;3.97;1.97;;;17.70;99.90;;;;;;20923864;28;20231;-76
2022/11/01 11:26:33;;;;;;;5.33;2.00;;;17.70;99.90;;;;;;20923443;28;20217;-69
2022/11/01 11:36:42;;;;;;;4.10;2.00;;;17.70;99.90;;;;;;20922051;28;20241;-69
2022/11/01 11:46:55;;;;;;;2.60;1.80;;;17.60;99.90;;;;;;20920082;28;20206;-74
2022/11/01 11:57:29;;;;;;;3.60;1.50;;;17.70;99.90;;;;;;20920350;28;20276;-69
2022/11/01 12:07:38;;;;;;;3.50;1.43;;;17.20;99.90;;;;;;20919029;28;20243;-68
2022/11/01 12:17:45;;;;;;;6.93;1.53;;;17.10;99.40;;;;;;20918719;28;20236;-74
2022/11/01 12:28:02;;;;;;;4.90;1.50;;;16.70;98.30;;;;;;20918270;28;20346;-75
2022/11/01 12:38:31;;;;;;;6.93;1.50;;;16.60;97.40;;;;;;20916451;28;20230;-76
2022/11/01 12:48:38;;;;;;;3.03;1.33;;;16.70;97.70;;;;;;20915983;28;20211;-74
2022/11/01 12:58:40;;;;;;;5.13;1.60;;;16.80;97.40;;;;;;20915609;28;20280;-75
2022/11/01 13:08:45;;;;;;;4.73;1.60;;;17.00;97.20;;;;;;20914448;28;20240;-72
2022/11/01 13:18:57;;;;;;;4.90;1.43;;;17.10;96.70;;;;;;20913995;28;20699;-71
2022/11/01 13:29:27;;;;;;;3.40;1.60;;;17.20;96.60;;;;;;20913831;28;20203;-74
2022/11/01 13:39:48;;;;;;;3.90;1.40;;;17.20;96.40;;;;;;20913388;28;20240;-72
2022/11/01 13:50:12;;;;;;;8.03;2.93;;;17.30;96.30;;;;;;20911707;28;20241;-74
2022/11/01 14:00:43;;;;;;;6.63;2.73;;;17.40;96.30;;;;;;20912404;28;20325;-77
2022/11/01 14:10:46;;;;;;;3.60;1.50;;;17.50;96.10;;;;;;20928225;28;20713;-76
2022/11/01 14:20:55;;;;;;;2.93;1.60;;;17.70;96.30;;;;;;20927680;28;20238;-75
2022/11/01 14:30:57;;;;;;;3.03;1.47;;;17.90;96.00;;;;;;20925850;28;20263;-74
2022/11/01 14:40:59;;;;;;;2.93;1.80;;;18.00;95.00;;;;;;20926333;28;20218;-71
2022/11/01 14:51:11;;;;;;;509.73;51.57;;;18.10;95.00;;;;;;20925562;28;20210;-68
2022/11/01 15:01:22;;;;;;;5.07;1.90;;;18.10;94.80;;;;;;20925060;28;20257;-69
2022/11/01 15:11:33;;;;;;;4.50;1.80;;;17.80;94.70;;;;;;20922515;28;20242;-68
2022/11/01 15:21:44;;;;;;;6.53;2.33;;;17.60;95.10;;;;;;20923005;28;20210;-69
2022/11/01 15:31:56;;;;;;;5.57;2.90;;;17.40;95.40;;;;;;20922588;28;20240;-70
2022/11/01 15:41:57;;;;;;;7.47;2.87;;;17.10;96.00;;;;;;20921911;28;20204;-75
2022/11/01 15:52:03;;;;;;;4.53;2.40;;;16.80;96.80;;;;;;20920682;28;20759;-68
2022/11/01 16:02:15;;;;;;;6.40;2.03;;;16.60;97.30;;;;;;20919868;28;20265;-67
2022/11/01 16:12:30;;;;;;;5.23;2.70;;;16.40;97.00;;;;;;20919453;28;20297;-69
2022/11/01 16:22:41;;;;;;;9.33;3.80;;;16.30;96.90;;;;;;20918334;28;20208;-69
2022/11/01 16:32:43;;;;;;;6.37;2.57;;;16.10;96.70;;;;;;20916803;28;20757;-74
2022/11/01 16:42:47;;;;;;;5.83;2.00;;;16.10;97.00;;;;;;20918472;28;20258;-71
2022/11/01 16:52:49;;;;;;;9.57;4.10;;;15.90;97.00;;;;;;20914683;28;20301;-69
2022/11/01 17:02:51;;;;;;;8.13;2.30;;;15.80;96.70;;;;;;20915215;28;20279;-72
2022/11/01 17:12:56;;;;;;;4.03;2.13;;;15.80;96.40;;;;;;20914849;28;20285;-69
2022/11/01 17:22:58;;;;;;;8.47;2.40;;;15.60;96.40;;;;;;20913888;28;20204;-69
2022/11/01 17:33:00;;;;;;;6.43;3.60;;;15.50;96.60;;;;;;20912893;28;20295;-68
2022/11/01 17:43:02;;;;;;;8.47;3.20;;;15.20;96.90;;;;;;20911603;28;20204;-72
2022/11/01 17:53:05;;;;;;;8.70;2.93;;;15.00;97.20;;;;;;20911927;28;20645;-82
2022/11/01 18:03:09;;;;;;;8.70;2.83;;;14.80;97.50;;;;;;20912047;28;20224;-74
2022/11/01 18:13:30;;;;;;;7.83;2.70;;;14.40;97.70;;;;;;20877730;28;20296;-68
2022/11/01 18:23:33;;;;;;;8.30;4.07;;;14.40;98.10;;;;;;20871980;28;20204;-76
2022/11/01 18:33:49;;;;;;;5.63;2.90;;;14.20;98.40;;;;;;20826921;28;20579;-73
2022/11/01 18:43:52;;;;;;;8.57;4.20;;;14.10;98.70;;;;;;20827103;28;20208;-71
2022/11/01 18:54:00;;;;;;;8.67;4.10;;;13.80;98.90;;;;;;20837848;28;20637;-70
2022/11/01 19:04:20;;;;;;;9.80;3.80;;;13.80;99.30;;;;;;20928803;28;20296;-72
2022/11/01 19:14:22;;;;;;;13.17;6.27;;;13.80;99.40;;;;;;20967325;28;20242;-73
2022/11/01 19:24:38;;;;;;;13.33;4.50;;;13.80;99.80;;;;;;21005913;28;20213;-73
2022/11/01 19:34:40;;;;;;;9.37;5.70;;;13.70;99.80;;;;;;21004464;28;20286;-72
2022/11/01 19:44:42;;;;;;;16.33;5.70;;;13.40;99.80;;;;;;20985138;28;20573;-74
2022/11/01 19:54:48;;;;;;;9.50;5.00;;;13.40;99.90;;;;;;20964166;28;20229;-75
2022/11/01 20:04:58;;;;;;;13.17;6.73;;;13.00;99.90;;;;;;20960308;28;20602;-73
2022/11/01 20:14:59;;;;;;;14.02;7.60;;;13.00;99.90;;;;;;20915529;28;20463;-72
2022/11/01 20:25:01;;;;;;;16.87;7.83;;;13.20;99.90;;;;;;20985411;28;20204;-77
2022/11/01 20:35:04;;;;;;;13.10;7.23;;;12.70;99.90;;;;;;21000161;28;20240;-77
2022/11/01 20:45:06;;;;;;;11.73;6.57;;;12.60;99.90;;;;;;20999714;28;20203;-76
2022/11/01 20:55:09;;;;;;;12.60;7.30;;;12.40;99.90;;;;;;20963809;28;20228;-77
2022/11/01 21:05:24;;;;;;;14.23;7.00;;;12.20;99.90;;;;;;20914637;28;20239;-76
2022/11/01 21:15:32;;;;;;;13.30;5.70;;;12.00;99.90;;;;;;20914492;28;20246;-76
2022/11/01 21:25:34;;;;;;;13.67;6.33;;;12.00;99.90;;;;;;20914023;28;20208;-75
2022/11/01 21:35:39;;;;;;;12.43;5.97;;;11.80;99.90;;;;;;20913239;28;20771;-75
2022/11/01 21:45:40;;;;;;;12.73;5.87;;;11.70;99.90;;;;;;20887437;28;20200;-76
2022/11/01 21:55:42;;;;;;;13.07;7.03;;;11.70;99.90;;;;;;20942180;28;20300;-75
2022/11/01 22:05:44;;;;;;;9.30;5.43;;;11.60;99.90;;;;;;20971244;28;20637;-73
2022/11/01 22:15:45;;;;;;;10.07;5.90;;;11.50;99.90;;;;;;20911607;28;20242;-76
2022/11/01 22:25:47;;;;;;;17.60;5.80;;;11.40;99.90;;;;;;20966376;28;20231;-75
2022/11/01 22:35:49;;;;;;;12.83;5.93;;;11.20;99.90;;;;;;21009014;28;20268;-75
2022/11/01 22:45:51;;;;;;;11.57;5.20;;;11.20;99.90;;;;;;21009028;28;20658;-75
2022/11/01 22:55:53;;;;;;;10.00;5.17;;;11.00;99.90;;;;;;21008452;28;20237;-75
2022/11/01 23:06:03;;;;;;;11.43;5.37;;;11.00;99.90;;;;;;21007093;28;20290;-75
2022/11/01 23:16:30;;;;;;;10.67;5.10;;;10.90;99.90;;;;;;20976242;28;20246;-75
2022/11/01 23:26:32;;;;;;;9.87;4.83;;;10.90;99.90;;;;;;20919399;28;20281;-75
2022/11/01 23:36:37;;;;;;;12.20;5.83;;;10.70;99.90;;;;;;20921479;28;20237;-76
2022/11/01 23:46:39;;;;;;;10.67;5.33;;;10.60;99.90;;;;;;20920499;28;20722;-75
2022/11/01 23:56:42;;;;;;;15.87;4.87;;;10.60;99.90;;;;;;20921391;28;20244;-76
